Terminal Aerodrome Forecast
Issued by NWS

Home | Current Version | Previous Version | Text Only | Print | Product List | Glossary On
Versions: 1 2 3 4 5 6 7 8 9 10 11 12 13 14 15 16 17 18 19
585
FTUS44 KBMX 292355
TAFTOI
TAF
KTOI 292355Z 3000/3024 27007KT P6SM VCSH SCT050 OVC120
     FM300500 26004KT P6SM OVC090
     FM301400 26006KT P6SM VCSH OVC025
     FM301600 27006KT P6SM VCTS SCT025 BKN035CB=

USA.gov is the U.S. government's official web portal to all federal, state and local government web resources and services.